createdAt,value
2018-12-19T00:01:42.899Z,16.03
2018-12-19T00:04:14.181Z,16.53
2018-12-19T00:06:45.763Z,17.13
2018-12-19T00:09:18.399Z,19.97
2018-12-19T00:11:49.346Z,15.90
2018-12-19T00:14:21.397Z,14.20
2018-12-19T00:16:52.254Z,14.43
2018-12-19T00:19:29.020Z,14.57
2018-12-19T00:22:03.477Z,14.33
2018-12-19T00:24:38.164Z,15.10
2018-12-19T00:27:09.228Z,17.20
2018-12-19T00:29:39.952Z,15.20
2018-12-19T00:32:10.718Z,18.20
2018-12-19T00:34:42.142Z,16.00
2018-12-19T00:37:12.971Z,12.37
2018-12-19T00:39:43.912Z,13.13
2018-12-19T00:42:14.760Z,13.53
2018-12-19T00:44:45.716Z,15.60
2018-12-19T00:47:17.006Z,13.67
2018-12-19T00:49:47.862Z,12.87
2018-12-19T00:52:19.518Z,13.97
2018-12-19T00:54:50.375Z,15.07
2018-12-19T00:57:21.479Z,14.23
2018-12-19T00:59:52.869Z,15.47
2018-12-19T01:02:25.027Z,13.70
2018-12-19T01:04:55.933Z,13.57
2018-12-19T01:07:27.102Z,11.17
2018-12-19T01:09:58.344Z,14.83
2018-12-19T01:12:29.265Z,13.60
2018-12-19T01:15:01.702Z,12.53
2018-12-19T01:17:33.637Z,13.00
2018-12-19T01:20:04.812Z,11.73
2018-12-19T01:22:35.649Z,12.57
2018-12-19T01:25:06.548Z,12.40
2018-12-19T01:27:40.772Z,12.40
2018-12-19T01:30:13.475Z,11.70
2018-12-19T01:32:44.936Z,12.53
2018-12-19T01:35:16.482Z,13.90
2018-12-19T01:37:47.183Z,12.73
2018-12-19T01:40:18.050Z,12.87
2018-12-19T01:42:50.399Z,12.43
2018-12-19T01:45:21.204Z,13.47
2018-12-19T01:47:52.772Z,12.07
2018-12-19T01:50:24.278Z,12.90
2018-12-19T01:52:55.439Z,12.67
2018-12-19T01:55:26.687Z,13.73
2018-12-19T01:57:57.742Z,11.73
2018-12-19T02:00:33.449Z,12.40
2018-12-19T02:03:09.063Z,12.00
2018-12-19T02:05:43.191Z,12.73
2018-12-19T02:08:14.918Z,10.77
2018-12-19T02:10:54.893Z,11.67
2018-12-19T02:13:31.538Z,12.37
2018-12-19T02:16:03.115Z,15.07
2018-12-19T02:18:35.123Z,14.47
2018-12-19T02:21:07.323Z,12.23
2018-12-19T02:23:38.099Z,12.67
2018-12-19T02:26:10.107Z,11.93
2018-12-19T02:28:42.782Z,11.93
2018-12-19T02:31:13.962Z,11.20
2018-12-19T02:33:44.749Z,11.97
2018-12-19T02:36:19.623Z,11.67
2018-12-19T02:38:53.838Z,13.73
2018-12-19T02:41:27.838Z,10.90
2018-12-19T02:43:58.743Z,12.77
2018-12-19T02:46:30.907Z,11.70
2018-12-19T02:49:01.794Z,11.27
2018-12-19T02:51:33.249Z,10.77
2018-12-19T02:54:09.721Z,10.77
2018-12-19T02:56:46.291Z,11.70
2018-12-19T02:59:23.246Z,11.23
2018-12-19T03:01:57.411Z,10.60
2018-12-19T03:04:30.160Z,9.50
2018-12-19T03:07:04.019Z,11.73
2018-12-19T03:09:42.909Z,11.67
2018-12-19T03:12:14.756Z,11.53
2018-12-19T03:14:45.697Z,12.03
2018-12-19T03:17:16.736Z,11.63
2018-12-19T03:19:51.051Z,9.67
2018-12-19T03:22:26.695Z,14.27
2018-12-19T03:24:58.739Z,12.63
2018-12-19T03:27:29.891Z,12.17
2018-12-19T03:30:00.725Z,10.50
2018-12-19T03:32:31.567Z,12.07
2018-12-19T03:35:02.399Z,12.17
2018-12-19T03:37:33.153Z,12.10
2018-12-19T03:40:03.971Z,10.40
2018-12-19T03:42:35.095Z,10.03
2018-12-19T03:45:06.131Z,9.57
2018-12-19T03:47:36.895Z,9.93
2018-12-19T03:50:07.923Z,11.07
2018-12-19T03:52:38.782Z,10.70
2018-12-19T03:55:10.919Z,10.17
2018-12-19T03:57:44.103Z,10.27
2018-12-19T04:00:14.935Z,10.23
2018-12-19T04:02:46.036Z,12.73
2018-12-19T04:05:16.929Z,7.73
2018-12-19T04:07:47.731Z,11.10
2018-12-19T04:10:18.528Z,11.40
2018-12-19T04:12:53.667Z,11.13
2018-12-19T04:15:24.516Z,10.60
2018-12-19T04:17:55.419Z,12.00
2018-12-19T04:20:26.239Z,9.43
2018-12-19T04:23:13.539Z,9.60
2018-12-19T04:28:41.647Z,10.67
2018-12-19T04:31:13.053Z,10.87
2018-12-19T04:33:47.174Z,11.07
2018-12-19T04:36:21.287Z,10.20
2018-12-19T04:38:55.310Z,8.63
2018-12-19T04:41:29.719Z,11.00
2018-12-19T04:44:04.675Z,10.60
2018-12-19T04:46:40.646Z,12.63
2018-12-19T04:52:36.482Z,13.80
2018-12-19T04:55:25.468Z,11.07
2018-12-19T04:57:56.433Z,9.97
2018-12-19T05:00:32.057Z,10.50
2018-12-19T05:03:03.776Z,12.57
2018-12-19T05:05:34.694Z,13.73
2018-12-19T05:08:09.861Z,11.27
2018-12-19T05:10:46.664Z,11.67
2018-12-19T05:13:19.666Z,8.90
2018-12-19T05:15:50.494Z,10.93
2018-12-19T05:18:26.926Z,9.57
2018-12-19T05:21:01.436Z,10.63
2018-12-19T05:23:35.989Z,11.43
2018-12-19T05:26:11.094Z,13.97
2018-12-19T05:28:46.357Z,9.93
2018-12-19T05:31:22.969Z,14.60
2018-12-19T05:33:59.923Z,11.73
2018-12-19T05:36:34.831Z,10.53
2018-12-19T05:39:09.388Z,10.53
2018-12-19T05:41:41.964Z,17.47
2018-12-19T05:44:28.723Z,10.90
2018-12-19T05:47:05.202Z,10.17
2018-12-19T05:49:41.786Z,11.03
2018-12-19T05:52:28.745Z,19.13
2018-12-19T05:55:05.040Z,12.30
2018-12-19T05:57:38.640Z,11.27
2018-12-19T06:00:14.947Z,12.47
2018-12-19T06:02:52.421Z,12.77
2018-12-19T06:05:27.491Z,10.33
2018-12-19T06:08:02.089Z,9.17
2018-12-19T06:10:37.088Z,10.23
2018-12-19T06:13:12.203Z,11.20
2018-12-19T06:15:47.218Z,14.17
2018-12-19T06:18:21.530Z,14.13
2018-12-19T06:20:57.284Z,10.50
2018-12-19T06:23:31.529Z,11.03
2018-12-19T06:26:10.459Z,10.40
2018-12-19T06:28:44.410Z,14.53
2018-12-19T06:31:18.608Z,11.97
2018-12-19T06:33:53.117Z,12.43
2018-12-19T06:36:24.873Z,12.40
2018-12-19T06:38:56.902Z,8.87
2018-12-19T06:41:31.370Z,11.13
2018-12-19T06:44:06.470Z,15.33
2018-12-19T06:46:37.695Z,12.60
2018-12-19T06:49:09.554Z,12.23
2018-12-19T06:51:44.597Z,11.87
2018-12-19T06:54:17.463Z,13.50
2018-12-19T06:56:54.713Z,11.80
2018-12-19T06:59:29.130Z,14.40
2018-12-19T07:02:04.935Z,16.83
2018-12-19T07:04:41.402Z,15.23
2018-12-19T07:07:15.962Z,13.10
2018-12-19T07:09:47.132Z,19.23
2018-12-19T07:12:18.457Z,17.13
2018-12-19T07:14:57.575Z,20.23
2018-12-19T07:17:28.627Z,16.97
2018-12-19T07:20:01.214Z,18.67
2018-12-19T07:22:32.187Z,21.70
2018-12-19T07:25:03.374Z,16.33
2018-12-19T07:27:35.631Z,20.50
2018-12-19T07:30:06.986Z,20.63
2018-12-19T07:32:37.920Z,19.73
2018-12-19T07:35:09.000Z,16.53
2018-12-19T07:37:41.234Z,16.03
2018-12-19T07:40:12.479Z,16.93
2018-12-19T07:42:43.855Z,16.97
2018-12-19T07:45:14.940Z,16.47
2018-12-19T07:47:46.250Z,20.43
2018-12-19T07:50:23.244Z,16.10
2018-12-19T07:53:00.013Z,19.20
2018-12-19T07:55:35.531Z,18.67
2018-12-19T07:58:07.644Z,20.97
2018-12-19T08:00:41.618Z,17.47
2018-12-19T08:03:14.179Z,18.27
2018-12-19T08:05:56.958Z,19.70
2018-12-19T08:08:31.715Z,19.40
2018-12-19T08:11:05.728Z,17.87
2018-12-19T08:13:40.277Z,19.07
2018-12-19T08:16:16.955Z,18.57
2018-12-19T08:18:51.972Z,15.70
2018-12-19T08:21:27.748Z,16.93
2018-12-19T08:24:04.157Z,15.67
2018-12-19T08:26:40.372Z,17.67
2018-12-19T08:29:13.922Z,17.77
2018-12-19T08:31:45.180Z,17.53
2018-12-19T08:34:23.753Z,19.30
2018-12-19T08:37:04.440Z,17.63
2018-12-19T08:39:36.357Z,20.87
2018-12-19T08:42:08.222Z,18.47
2018-12-19T08:44:46.330Z,18.77
2018-12-19T08:47:21.427Z,15.00
2018-12-19T08:49:56.506Z,17.57
2018-12-19T08:52:32.201Z,18.17
2018-12-19T08:55:08.710Z,17.83
2018-12-19T08:57:42.704Z,23.30
2018-12-19T09:00:18.098Z,22.37
2018-12-19T09:02:51.631Z,16.10
2018-12-19T09:05:28.612Z,19.13
2018-12-19T09:08:02.871Z,21.83
2018-12-19T09:10:34.368Z,17.20
2018-12-19T09:13:07.851Z,18.70
2018-12-19T09:15:49.027Z,20.30
2018-12-19T09:18:22.994Z,19.63
2018-12-19T09:20:57.479Z,21.90
2018-12-19T09:23:31.632Z,20.33
2018-12-19T09:26:06.766Z,20.47
2018-12-19T09:28:37.800Z,22.53
2018-12-19T09:31:09.604Z,21.53
2018-12-19T09:33:40.662Z,16.13
2018-12-19T09:36:13.385Z,19.37
2018-12-19T09:38:44.683Z,24.87
2018-12-19T09:41:15.886Z,20.93
2018-12-19T09:43:46.889Z,19.00
2018-12-19T09:46:23.080Z,20.33
2018-12-19T09:49:03.799Z,22.07
2018-12-19T09:51:40.253Z,24.03
2018-12-19T09:54:15.591Z,17.03
2018-12-19T09:56:47.368Z,23.50
2018-12-19T09:59:18.654Z,20.47
2018-12-19T10:01:49.975Z,19.33
2018-12-19T10:04:20.900Z,22.37
2018-12-19T10:06:51.809Z,17.50
2018-12-19T10:09:22.947Z,24.60
2018-12-19T10:11:53.903Z,16.57
2018-12-19T10:14:24.825Z,18.17
2018-12-19T10:16:57.114Z,21.90
2018-12-19T10:19:30.745Z,20.30
2018-12-19T10:22:03.531Z,19.33
2018-12-19T10:24:44.907Z,21.17
2018-12-19T10:27:21.580Z,18.83
2018-12-19T10:29:58.241Z,17.53
2018-12-19T10:32:37.157Z,18.30
2018-12-19T10:35:13.821Z,19.37
2018-12-19T10:37:48.337Z,17.97
2018-12-19T10:40:22.561Z,21.93
2018-12-19T10:42:58.880Z,19.97
2018-12-19T10:45:33.143Z,18.53
2018-12-19T10:48:09.714Z,20.00
2018-12-19T10:50:42.532Z,18.07
2018-12-19T10:53:17.192Z,19.97
2018-12-19T10:55:53.586Z,20.37
2018-12-19T10:58:29.576Z,21.20
2018-12-19T11:01:03.730Z,25.23
2018-12-19T11:06:35.906Z,20.20
2018-12-19T11:09:12.351Z,21.73
2018-12-19T11:11:47.919Z,23.27
2018-12-19T11:14:22.224Z,18.17
2018-12-19T11:16:59.157Z,18.53
2018-12-19T11:19:35.046Z,17.57
2018-12-19T11:22:14.087Z,16.63
2018-12-19T11:24:49.146Z,19.97
2018-12-19T11:27:21.626Z,16.53
2018-12-19T11:30:00.306Z,15.43
2018-12-19T11:32:35.392Z,18.20
2018-12-19T11:35:11.357Z,18.57
2018-12-19T11:37:56.948Z,18.70
2018-12-19T11:40:33.988Z,17.10
2018-12-19T11:43:10.236Z,18.23
2018-12-19T11:45:44.958Z,21.00
2018-12-19T11:48:16.825Z,17.60
2018-12-19T11:51:05.346Z,22.97
2018-12-19T11:53:44.696Z,22.27
2018-12-19T11:56:27.661Z,20.37
2018-12-19T11:59:03.211Z,20.67
2018-12-19T12:01:41.562Z,21.23
2018-12-19T12:04:19.826Z,18.90
2018-12-19T12:07:00.692Z,19.40
2018-12-19T12:09:32.107Z,26.70
2018-12-19T12:12:04.643Z,21.70
2018-12-19T12:14:35.567Z,20.13
2018-12-19T12:17:08.793Z,18.27
2018-12-19T12:19:42.548Z,22.57
2018-12-19T12:22:14.292Z,19.57
2018-12-19T12:24:45.920Z,24.40
2018-12-19T12:27:17.011Z,19.20
2018-12-19T12:29:48.060Z,20.23
2018-12-19T12:32:19.088Z,24.30
2018-12-19T12:34:50.439Z,20.83
2018-12-19T12:37:29.979Z,18.30
2018-12-19T12:40:07.913Z,20.67
2018-12-19T12:42:39.759Z,17.63
2018-12-19T12:45:11.243Z,21.20
2018-12-19T12:47:42.611Z,23.97
2018-12-19T12:50:13.866Z,18.67
2018-12-19T12:52:46.223Z,18.90
2018-12-19T12:55:25.650Z,20.50
2018-12-19T12:58:02.216Z,21.57
2018-12-19T13:00:40.237Z,17.37
2018-12-19T13:03:28.786Z,19.90
2018-12-19T13:06:11.759Z,19.17
2018-12-19T13:08:48.986Z,14.93
2018-12-19T13:11:31.230Z,16.70
2018-12-19T13:14:05.920Z,17.80
2018-12-19T13:16:38.487Z,17.37
2018-12-19T13:19:11.038Z,19.07
2018-12-19T13:21:43.148Z,16.37
2018-12-19T13:24:15.439Z,17.20
2018-12-19T13:26:47.326Z,21.50
2018-12-19T13:29:23.225Z,18.07
2018-12-19T13:32:00.266Z,16.30
2018-12-19T13:34:34.969Z,15.97
2018-12-19T13:37:06.337Z,16.20
2018-12-19T13:39:37.324Z,20.27
2018-12-19T13:42:13.475Z,19.90
2018-12-19T13:45:03.023Z,17.83
2018-12-19T13:47:34.670Z,20.23
2018-12-19T13:50:10.597Z,22.37
2018-12-19T13:52:41.595Z,18.53
2018-12-19T13:55:12.843Z,18.80
2018-12-19T13:57:47.012Z,25.37
2018-12-19T14:00:19.963Z,19.70
2018-12-19T14:05:51.943Z,21.70
2018-12-19T14:08:24.610Z,27.20
2018-12-19T14:10:58.718Z,21.17
2018-12-19T14:13:30.027Z,23.87
2018-12-19T14:16:01.044Z,23.30
2018-12-19T14:18:31.950Z,24.50
2018-12-19T14:21:06.854Z,16.93
2018-12-19T14:23:40.974Z,25.20
2018-12-19T14:26:11.959Z,24.63
2018-12-19T14:28:46.882Z,18.67
2018-12-19T14:31:26.779Z,20.97
2018-12-19T14:34:02.244Z,27.90
2018-12-19T14:36:33.121Z,31.70
2018-12-19T14:39:16.030Z,25.80
2018-12-19T14:41:47.218Z,22.30
2018-12-19T14:44:18.442Z,22.30
2018-12-19T14:46:51.748Z,24.17
2018-12-19T14:49:25.793Z,24.13
2018-12-19T14:51:57.079Z,27.80
2018-12-19T14:54:29.542Z,23.57
2018-12-19T14:57:05.890Z,25.27
2018-12-19T14:59:40.530Z,22.57
2018-12-19T15:02:15.809Z,24.63
2018-12-19T15:04:50.460Z,21.47
2018-12-19T15:07:27.747Z,23.60
2018-12-19T15:10:04.250Z,24.57
2018-12-19T15:12:41.132Z,26.60
2018-12-19T15:15:21.361Z,25.23
2018-12-19T15:17:57.546Z,30.23
2018-12-19T15:20:34.293Z,28.73
2018-12-19T15:23:10.341Z,23.43
2018-12-19T15:25:53.031Z,23.70
2018-12-19T15:31:17.086Z,31.03
2018-12-19T15:33:53.123Z,28.10
2018-12-19T15:36:28.494Z,22.03
2018-12-19T15:39:08.163Z,27.60
2018-12-19T15:41:45.224Z,26.00
2018-12-19T15:46:03.918Z,27.13
2018-12-19T15:48:39.953Z,32.07
2018-12-19T15:51:16.307Z,31.77
2018-12-19T15:53:53.920Z,22.03
2018-12-19T15:56:29.137Z,24.53
2018-12-19T15:59:03.868Z,22.40
2018-12-19T16:01:37.574Z,25.80
2018-12-19T16:04:09.778Z,23.93
2018-12-19T16:06:44.307Z,22.93
2018-12-19T16:09:18.824Z,26.83
2018-12-19T16:11:54.977Z,24.77
2018-12-19T16:14:31.500Z,23.93
2018-12-19T16:17:08.791Z,23.73
2018-12-19T16:19:43.588Z,22.83
2018-12-19T16:22:18.866Z,26.07
2018-12-19T16:24:57.808Z,22.67
2018-12-19T16:27:43.164Z,23.47
2018-12-19T16:30:35.752Z,20.83
2018-12-19T16:33:12.923Z,26.77
2018-12-19T16:35:50.950Z,24.10
2018-12-19T16:38:28.445Z,25.00
2018-12-19T16:43:46.981Z,25.30
2018-12-19T16:46:23.841Z,25.67
2018-12-19T16:51:52.784Z,22.93
2018-12-19T16:54:28.753Z,27.93
2018-12-19T16:57:11.782Z,29.43
2018-12-19T16:59:48.964Z,23.90
2018-12-19T17:02:26.556Z,24.03
2018-12-19T17:05:09.803Z,24.20
2018-12-19T17:10:30.503Z,26.37
2018-12-19T17:13:14.652Z,22.13
2018-12-19T17:15:48.830Z,23.83
2018-12-19T17:18:22.112Z,24.53
2018-12-19T17:20:57.163Z,26.33
2018-12-19T17:23:36.710Z,23.00
2018-12-19T17:26:25.509Z,23.10
2018-12-19T17:29:01.243Z,26.97
2018-12-19T17:31:42.981Z,30.83
2018-12-19T17:34:14.253Z,25.17
2018-12-19T17:36:45.851Z,25.60
2018-12-19T17:39:18.402Z,28.67
2018-12-19T17:41:51.886Z,27.07
2018-12-19T17:44:24.839Z,26.87
2018-12-19T17:47:03.756Z,24.80
2018-12-19T17:49:40.838Z,27.13
2018-12-19T17:52:18.531Z,21.27
2018-12-19T17:54:57.547Z,25.93
2018-12-19T17:57:35.510Z,24.93
2018-12-19T18:08:31.616Z,24.97
2018-12-19T18:11:06.913Z,28.33
2018-12-19T18:16:37.070Z,25.20
2018-12-19T18:19:13.239Z,28.27
2018-12-19T18:21:56.550Z,25.60
2018-12-19T18:24:39.078Z,27.57
2018-12-19T18:27:16.251Z,30.60
2018-12-19T18:29:52.037Z,22.30
2018-12-19T18:32:29.132Z,21.00
2018-12-19T18:35:05.974Z,18.17
2018-12-19T18:37:41.388Z,16.03
2018-12-19T18:40:16.557Z,15.57
2018-12-19T18:42:49.706Z,20.87
2018-12-19T18:45:26.406Z,17.73
2018-12-19T18:48:02.976Z,14.57
2018-12-19T18:50:39.205Z,15.80
2018-12-19T18:53:13.994Z,15.67
2018-12-19T18:55:54.102Z,17.10
2018-12-19T18:58:29.814Z,22.80
2018-12-19T19:04:01.006Z,16.40
2018-12-19T19:06:49.338Z,15.83
2018-12-19T19:09:27.393Z,13.63
2018-12-19T19:15:08.681Z,13.40
2018-12-19T19:17:56.436Z,16.83
2018-12-19T19:20:39.947Z,17.33
2018-12-19T19:28:34.064Z,13.87
2018-12-19T19:41:52.660Z,11.70
2018-12-19T19:44:42.112Z,10.43
2018-12-19T19:47:21.453Z,13.83
2018-12-19T19:50:00.562Z,12.30
2018-12-19T19:52:48.945Z,13.70
2018-12-19T19:55:38.763Z,8.30
2018-12-19T19:58:22.212Z,7.23
2018-12-19T20:01:08.945Z,10.13
2018-12-19T20:06:37.140Z,7.03
2018-12-19T20:09:28.775Z,7.10
2018-12-19T20:23:37.048Z,6.53
2018-12-19T20:26:24.136Z,4.90
2018-12-19T20:29:01.498Z,5.83
2018-12-19T20:31:41.349Z,8.00
2018-12-19T20:34:24.837Z,5.37
2018-12-19T20:37:01.720Z,4.57
2018-12-19T20:39:46.090Z,5.07
2018-12-19T20:42:28.554Z,5.73
2018-12-19T20:51:05.088Z,4.07
2018-12-19T20:53:43.550Z,5.20
2018-12-19T21:01:08.117Z,4.87
2018-12-19T21:03:54.117Z,3.60
2018-12-19T21:09:15.977Z,4.27
2018-12-19T21:14:58.691Z,7.27
2018-12-19T21:17:45.397Z,6.50
2018-12-19T21:20:32.672Z,4.73
2018-12-19T21:23:13.692Z,7.37
2018-12-19T21:25:54.765Z,3.67
2018-12-19T21:28:33.418Z,4.47
2018-12-19T21:31:08.442Z,4.03
2018-12-19T21:33:43.719Z,5.17
2018-12-19T21:36:22.412Z,5.57
2018-12-19T21:38:56.651Z,12.03
2018-12-19T21:48:44.501Z,10.70
2018-12-19T21:51:22.101Z,4.40
2018-12-19T21:53:58.764Z,3.23
2018-12-19T21:56:34.373Z,3.30
2018-12-19T21:59:11.603Z,3.03
2018-12-19T22:01:48.134Z,3.13
2018-12-19T22:04:40.499Z,2.93
2018-12-19T22:07:23.696Z,2.93
2018-12-19T22:16:13.874Z,3.50
2018-12-19T22:18:51.315Z,4.00
2018-12-19T22:21:28.515Z,2.63
2018-12-19T22:24:02.036Z,5.07
2018-12-19T22:26:36.846Z,3.47
2018-12-19T22:29:11.035Z,3.43
2018-12-19T22:31:46.728Z,2.67
2018-12-19T22:34:20.740Z,2.40
2018-12-19T22:36:56.189Z,3.63
2018-12-19T22:39:30.843Z,1.80
2018-12-19T22:42:08.327Z,2.50
2018-12-19T22:44:44.918Z,5.60
2018-12-19T22:47:22.108Z,1.73
2018-12-19T22:49:56.979Z,4.23
2018-12-19T22:52:34.809Z,2.30
2018-12-19T22:55:09.618Z,3.50
2018-12-19T22:57:42.417Z,2.93
2018-12-19T23:00:18.520Z,3.60
2018-12-19T23:02:57.794Z,2.23
2018-12-19T23:05:39.002Z,2.87
2018-12-19T23:08:14.203Z,2.57
2018-12-19T23:10:50.095Z,2.43
2018-12-19T23:19:15.296Z,1.80
2018-12-19T23:21:55.576Z,4.27
2018-12-19T23:24:32.397Z,2.77
2018-12-19T23:27:08.326Z,2.10
2018-12-19T23:29:47.218Z,2.90
2018-12-19T23:32:36.784Z,3.20
2018-12-19T23:35:19.045Z,1.63
2018-12-19T23:37:54.155Z,2.60
2018-12-19T23:40:30.496Z,3.20
2018-12-19T23:43:05.314Z,2.50
2018-12-19T23:45:42.462Z,2.20
2018-12-19T23:48:22.420Z,2.73
2018-12-19T23:50:57.731Z,2.53
2018-12-19T23:53:35.264Z,1.87
2018-12-19T23:56:10.348Z,2.00
2018-12-19T23:58:54.605Z,3.57
